sensor_id;sensor_type;location;lat;lon;timestamp;P1;durP1;ratioP1;P2;durP2;ratioP2
3054;SDS011;1537;52.018;8.542;2022-11-20T00:02:04;29.10;;;20.40;;
3054;SDS011;1537;52.018;8.542;2022-11-20T00:05:28;28.60;;;18.53;;
3054;SDS011;1537;52.018;8.542;2022-11-20T00:08:56;32.70;;;19.83;;
3054;SDS011;1537;52.018;8.542;2022-11-20T00:12:23;46.27;;;25.30;;
3054;SDS011;1537;52.018;8.542;2022-11-20T00:15:47;37.17;;;26.20;;
3054;SDS011;1537;52.018;8.542;2022-11-20T00:19:12;39.87;;;23.67;;
3054;SDS011;1537;52.018;8.542;2022-11-20T00:22:36;30.23;;;20.40;;
3054;SDS011;1537;52.018;8.542;2022-11-20T00:26:02;32.50;;;20.17;;
3054;SDS011;1537;52.018;8.542;2022-11-20T00:29:30;29.93;;;21.10;;
3054;SDS011;1537;52.018;8.542;2022-11-20T00:32:56;28.23;;;18.67;;
3054;SDS011;1537;52.018;8.542;2022-11-20T00:36:21;25.53;;;19.37;;
3054;SDS011;1537;52.018;8.542;2022-11-20T00:39:46;33.03;;;20.40;;
3054;SDS011;1537;52.018;8.542;2022-11-20T00:43:10;28.17;;;20.03;;
3054;SDS011;1537;52.018;8.542;2022-11-20T00:46:35;31.13;;;22.10;;
3054;SDS011;1537;52.018;8.542;2022-11-20T00:49:59;28.83;;;20.33;;
3054;SDS011;1537;52.018;8.542;2022-11-20T00:53:23;24.57;;;17.87;;
3054;SDS011;1537;52.018;8.542;2022-11-20T00:56:48;28.90;;;21.17;;
3054;SDS011;1537;52.018;8.542;2022-11-20T01:00:12;29.97;;;21.73;;
3054;SDS011;1537;52.018;8.542;2022-11-20T01:03:39;26.37;;;18.93;;
3054;SDS011;1537;52.018;8.542;2022-11-20T01:07:04;32.67;;;22.00;;
3054;SDS011;1537;52.018;8.542;2022-11-20T01:10:28;26.63;;;20.20;;
3054;SDS011;1537;52.018;8.542;2022-11-20T01:13:52;28.90;;;20.57;;
3054;SDS011;1537;52.018;8.542;2022-11-20T01:17:19;30.53;;;19.03;;
3054;SDS011;1537;52.018;8.542;2022-11-20T01:20:45;29.43;;;19.97;;
3054;SDS011;1537;52.018;8.542;2022-11-20T01:24:10;33.83;;;22.30;;
3054;SDS011;1537;52.018;8.542;2022-11-20T01:27:35;29.60;;;21.83;;
3054;SDS011;1537;52.018;8.542;2022-11-20T01:30:59;32.83;;;21.00;;
3054;SDS011;1537;52.018;8.542;2022-11-20T01:34:24;28.77;;;20.50;;
3054;SDS011;1537;52.018;8.542;2022-11-20T01:37:50;31.87;;;20.97;;
3054;SDS011;1537;52.018;8.542;2022-11-20T01:41:14;26.63;;;19.70;;
3054;SDS011;1537;52.018;8.542;2022-11-20T01:44:53;27.30;;;19.33;;
3054;SDS011;1537;52.018;8.542;2022-11-20T01:48:19;33.60;;;22.33;;
3054;SDS011;1537;52.018;8.542;2022-11-20T01:51:47;28.73;;;19.93;;
3054;SDS011;1537;52.018;8.542;2022-11-20T01:55:18;29.87;;;20.93;;
3054;SDS011;1537;52.018;8.542;2022-11-20T01:58:47;31.97;;;19.73;;
3054;SDS011;1537;52.018;8.542;2022-11-20T02:02:16;26.57;;;19.03;;
3054;SDS011;1537;52.018;8.542;2022-11-20T02:05:41;31.10;;;19.90;;
3054;SDS011;1537;52.018;8.542;2022-11-20T02:09:09;27.10;;;17.87;;
3054;SDS011;1537;52.018;8.542;2022-11-20T02:12:35;28.47;;;18.43;;
3054;SDS011;1537;52.018;8.542;2022-11-20T02:16:19;30.20;;;20.20;;
3054;SDS011;1537;52.018;8.542;2022-11-20T02:19:45;27.50;;;19.60;;
3054;SDS011;1537;52.018;8.542;2022-11-20T02:23:11;25.60;;;18.63;;
3054;SDS011;1537;52.018;8.542;2022-11-20T02:26:44;29.43;;;18.30;;
3054;SDS011;1537;52.018;8.542;2022-11-20T02:30:14;31.13;;;20.70;;
3054;SDS011;1537;52.018;8.542;2022-11-20T02:33:40;30.63;;;19.03;;
3054;SDS011;1537;52.018;8.542;2022-11-20T02:37:04;31.47;;;20.47;;
3054;SDS011;1537;52.018;8.542;2022-11-20T02:40:29;29.47;;;20.87;;
3054;SDS011;1537;52.018;8.542;2022-11-20T02:43:55;27.23;;;20.00;;
3054;SDS011;1537;52.018;8.542;2022-11-20T02:47:18;28.63;;;19.13;;
3054;SDS011;1537;52.018;8.542;2022-11-20T02:50:42;31.17;;;21.27;;
3054;SDS011;1537;52.018;8.542;2022-11-20T02:54:06;29.40;;;20.10;;
3054;SDS011;1537;52.018;8.542;2022-11-20T02:57:30;56.87;;;20.77;;
3054;SDS011;1537;52.018;8.542;2022-11-20T03:00:56;31.83;;;21.90;;
3054;SDS011;1537;52.018;8.542;2022-11-20T03:04:20;29.23;;;21.07;;
3054;SDS011;1537;52.018;8.542;2022-11-20T03:07:44;30.00;;;21.00;;
3054;SDS011;1537;52.018;8.542;2022-11-20T03:11:08;29.10;;;19.47;;
3054;SDS011;1537;52.018;8.542;2022-11-20T03:14:34;31.43;;;20.57;;
3054;SDS011;1537;52.018;8.542;2022-11-20T03:18:00;30.97;;;21.23;;
3054;SDS011;1537;52.018;8.542;2022-11-20T03:21:24;29.97;;;21.07;;
3054;SDS011;1537;52.018;8.542;2022-11-20T03:24:49;24.77;;;18.50;;
3054;SDS011;1537;52.018;8.542;2022-11-20T03:28:14;29.00;;;20.10;;
3054;SDS011;1537;52.018;8.542;2022-11-20T03:31:39;24.67;;;18.10;;
3054;SDS011;1537;52.018;8.542;2022-11-20T03:35:05;25.07;;;18.80;;
3054;SDS011;1537;52.018;8.542;2022-11-20T03:38:29;28.77;;;20.27;;
3054;SDS011;1537;52.018;8.542;2022-11-20T03:41:54;27.30;;;20.30;;
3054;SDS011;1537;52.018;8.542;2022-11-20T03:45:18;28.00;;;19.47;;
3054;SDS011;1537;52.018;8.542;2022-11-20T03:48:42;23.77;;;18.17;;
3054;SDS011;1537;52.018;8.542;2022-11-20T03:52:15;29.33;;;19.10;;
3054;SDS011;1537;52.018;8.542;2022-11-20T03:55:38;29.77;;;20.40;;
3054;SDS011;1537;52.018;8.542;2022-11-20T03:59:03;30.80;;;19.53;;
3054;SDS011;1537;52.018;8.542;2022-11-20T04:02:28;23.33;;;18.13;;
3054;SDS011;1537;52.018;8.542;2022-11-20T04:05:52;29.83;;;19.30;;
3054;SDS011;1537;52.018;8.542;2022-11-20T04:09:18;24.10;;;16.90;;
3054;SDS011;1537;52.018;8.542;2022-11-20T04:12:42;27.00;;;18.17;;
3054;SDS011;1537;52.018;8.542;2022-11-20T04:16:09;22.90;;;17.23;;
3054;SDS011;1537;52.018;8.542;2022-11-20T04:19:33;24.33;;;16.20;;
3054;SDS011;1537;52.018;8.542;2022-11-20T04:22:57;28.20;;;18.30;;
3054;SDS011;1537;52.018;8.542;2022-11-20T04:26:23;24.03;;;16.87;;
3054;SDS011;1537;52.018;8.542;2022-11-20T04:29:48;23.57;;;15.93;;
3054;SDS011;1537;52.018;8.542;2022-11-20T04:33:12;24.87;;;18.10;;
3054;SDS011;1537;52.018;8.542;2022-11-20T04:36:36;24.73;;;16.70;;
3054;SDS011;1537;52.018;8.542;2022-11-20T04:40:00;23.43;;;17.73;;
3054;SDS011;1537;52.018;8.542;2022-11-20T04:43:26;25.47;;;16.37;;
3054;SDS011;1537;52.018;8.542;2022-11-20T04:46:50;23.47;;;17.10;;
3054;SDS011;1537;52.018;8.542;2022-11-20T04:50:15;26.87;;;17.67;;
3054;SDS011;1537;52.018;8.542;2022-11-20T04:53:39;25.47;;;17.03;;
3054;SDS011;1537;52.018;8.542;2022-11-20T04:57:04;24.93;;;17.43;;
3054;SDS011;1537;52.018;8.542;2022-11-20T05:00:37;18.57;;;15.30;;
3054;SDS011;1537;52.018;8.542;2022-11-20T05:04:01;30.03;;;14.83;;
3054;SDS011;1537;52.018;8.542;2022-11-20T05:07:24;19.83;;;15.13;;
3054;SDS011;1537;52.018;8.542;2022-11-20T05:10:48;22.83;;;14.77;;
3054;SDS011;1537;52.018;8.542;2022-11-20T05:14:13;29.33;;;17.87;;
3054;SDS011;1537;52.018;8.542;2022-11-20T05:17:38;24.53;;;14.87;;
3054;SDS011;1537;52.018;8.542;2022-11-20T05:21:02;23.40;;;17.60;;
3054;SDS011;1537;52.018;8.542;2022-11-20T05:24:26;25.27;;;17.07;;
3054;SDS011;1537;52.018;8.542;2022-11-20T05:27:50;20.83;;;14.93;;
3054;SDS011;1537;52.018;8.542;2022-11-20T05:31:15;23.70;;;16.43;;
3054;SDS011;1537;52.018;8.542;2022-11-20T05:34:49;26.70;;;16.60;;
3054;SDS011;1537;52.018;8.542;2022-11-20T05:38:13;20.47;;;15.83;;
3054;SDS011;1537;52.018;8.542;2022-11-20T05:41:38;21.10;;;14.80;;
3054;SDS011;1537;52.018;8.542;2022-11-20T05:45:03;27.17;;;16.37;;
3054;SDS011;1537;52.018;8.542;2022-11-20T05:48:29;21.40;;;15.30;;
3054;SDS011;1537;52.018;8.542;2022-11-20T05:51:55;22.80;;;17.70;;
3054;SDS011;1537;52.018;8.542;2022-11-20T05:55:19;20.67;;;15.27;;
3054;SDS011;1537;52.018;8.542;2022-11-20T05:58:43;21.90;;;15.70;;
3054;SDS011;1537;52.018;8.542;2022-11-20T06:02:07;22.17;;;14.93;;
3054;SDS011;1537;52.018;8.542;2022-11-20T06:05:33;21.87;;;16.17;;
3054;SDS011;1537;52.018;8.542;2022-11-20T06:08:58;22.10;;;16.20;;
3054;SDS011;1537;52.018;8.542;2022-11-20T06:12:22;23.20;;;14.70;;
3054;SDS011;1537;52.018;8.542;2022-11-20T06:15:48;23.60;;;13.80;;
3054;SDS011;1537;52.018;8.542;2022-11-20T06:19:13;20.10;;;14.50;;
3054;SDS011;1537;52.018;8.542;2022-11-20T06:22:37;19.30;;;11.57;;
3054;SDS011;1537;52.018;8.542;2022-11-20T06:26:03;17.27;;;12.33;;
3054;SDS011;1537;52.018;8.542;2022-11-20T06:29:28;16.00;;;11.67;;
3054;SDS011;1537;52.018;8.542;2022-11-20T06:32:55;21.00;;;14.00;;
3054;SDS011;1537;52.018;8.542;2022-11-20T06:36:20;19.20;;;13.10;;
3054;SDS011;1537;52.018;8.542;2022-11-20T06:39:45;20.97;;;15.07;;
3054;SDS011;1537;52.018;8.542;2022-11-20T06:43:11;18.63;;;13.37;;
3054;SDS011;1537;52.018;8.542;2022-11-20T06:46:35;20.63;;;13.70;;
3054;SDS011;1537;52.018;8.542;2022-11-20T06:49:59;19.40;;;14.60;;
3054;SDS011;1537;52.018;8.542;2022-11-20T06:53:23;21.47;;;15.10;;
3054;SDS011;1537;52.018;8.542;2022-11-20T06:56:48;17.80;;;13.43;;
3054;SDS011;1537;52.018;8.542;2022-11-20T07:00:13;20.80;;;15.17;;
3054;SDS011;1537;52.018;8.542;2022-11-20T07:03:38;20.80;;;13.77;;
3054;SDS011;1537;52.018;8.542;2022-11-20T07:07:03;18.20;;;12.80;;
3054;SDS011;1537;52.018;8.542;2022-11-20T07:10:28;16.47;;;12.13;;
3054;SDS011;1537;52.018;8.542;2022-11-20T07:13:52;20.27;;;12.57;;
3054;SDS011;1537;52.018;8.542;2022-11-20T07:17:17;24.33;;;13.00;;
3054;SDS011;1537;52.018;8.542;2022-11-20T07:20:41;17.60;;;12.77;;
3054;SDS011;1537;52.018;8.542;2022-11-20T07:24:05;28.07;;;16.63;;
3054;SDS011;1537;52.018;8.542;2022-11-20T07:27:29;26.60;;;17.43;;
3054;SDS011;1537;52.018;8.542;2022-11-20T07:30:54;25.03;;;16.60;;
3054;SDS011;1537;52.018;8.542;2022-11-20T07:34:19;36.43;;;18.37;;
3054;SDS011;1537;52.018;8.542;2022-11-20T07:37:44;31.90;;;18.00;;
3054;SDS011;1537;52.018;8.542;2022-11-20T07:41:09;33.70;;;17.37;;
3054;SDS011;1537;52.018;8.542;2022-11-20T07:44:33;34.97;;;18.00;;
3054;SDS011;1537;52.018;8.542;2022-11-20T07:47:58;35.00;;;16.27;;
3054;SDS011;1537;52.018;8.542;2022-11-20T07:51:23;33.03;;;16.60;;
3054;SDS011;1537;52.018;8.542;2022-11-20T07:54:48;38.73;;;19.23;;
3054;SDS011;1537;52.018;8.542;2022-11-20T07:58:12;40.80;;;20.13;;
3054;SDS011;1537;52.018;8.542;2022-11-20T08:01:36;34.17;;;15.20;;
3054;SDS011;1537;52.018;8.542;2022-11-20T08:05:00;30.10;;;17.40;;
3054;SDS011;1537;52.018;8.542;2022-11-20T08:08:25;34.10;;;17.80;;
3054;SDS011;1537;52.018;8.542;2022-11-20T08:11:53;33.03;;;18.77;;
3054;SDS011;1537;52.018;8.542;2022-11-20T08:15:34;26.37;;;15.67;;
3054;SDS011;1537;52.018;8.542;2022-11-20T08:18:59;25.20;;;16.30;;
3054;SDS011;1537;52.018;8.542;2022-11-20T08:22:23;19.37;;;15.83;;
3054;SDS011;1537;52.018;8.542;2022-11-20T08:25:50;22.13;;;15.13;;
3054;SDS011;1537;52.018;8.542;2022-11-20T08:29:14;19.10;;;14.83;;
3054;SDS011;1537;52.018;8.542;2022-11-20T08:32:43;18.50;;;14.70;;
3054;SDS011;1537;52.018;8.542;2022-11-20T08:36:07;20.40;;;14.03;;
3054;SDS011;1537;52.018;8.542;2022-11-20T08:39:34;19.30;;;14.23;;
3054;SDS011;1537;52.018;8.542;2022-11-20T08:42:59;17.33;;;13.23;;
3054;SDS011;1537;52.018;8.542;2022-11-20T08:46:23;19.43;;;14.77;;
3054;SDS011;1537;52.018;8.542;2022-11-20T08:49:49;25.23;;;19.17;;
3054;SDS011;1537;52.018;8.542;2022-11-20T08:53:13;28.33;;;19.07;;
3054;SDS011;1537;52.018;8.542;2022-11-20T08:56:37;28.53;;;19.87;;
3054;SDS011;1537;52.018;8.542;2022-11-20T09:00:15;20.97;;;16.20;;
3054;SDS011;1537;52.018;8.542;2022-11-20T09:03:40;18.80;;;13.50;;
3054;SDS011;1537;52.018;8.542;2022-11-20T09:07:04;15.57;;;12.47;;
3054;SDS011;1537;52.018;8.542;2022-11-20T09:10:28;23.30;;;14.87;;
3054;SDS011;1537;52.018;8.542;2022-11-20T09:13:52;19.80;;;14.50;;
3054;SDS011;1537;52.018;8.542;2022-11-20T09:17:18;16.30;;;11.80;;
3054;SDS011;1537;52.018;8.542;2022-11-20T09:20:43;14.00;;;10.50;;
3054;SDS011;1537;52.018;8.542;2022-11-20T09:24:07;12.30;;;9.57;;
3054;SDS011;1537;52.018;8.542;2022-11-20T09:27:31;11.60;;;10.40;;
3054;SDS011;1537;52.018;8.542;2022-11-20T09:30:55;11.80;;;8.17;;
3054;SDS011;1537;52.018;8.542;2022-11-20T09:34:21;13.90;;;9.53;;
3054;SDS011;1537;52.018;8.542;2022-11-20T09:37:46;11.60;;;8.93;;
3054;SDS011;1537;52.018;8.542;2022-11-20T09:41:14;11.33;;;8.43;;
3054;SDS011;1537;52.018;8.542;2022-11-20T09:45:02;12.40;;;9.27;;
3054;SDS011;1537;52.018;8.542;2022-11-20T09:48:48;11.47;;;9.50;;
3054;SDS011;1537;52.018;8.542;2022-11-20T09:52:28;14.47;;;10.20;;
3054;SDS011;1537;52.018;8.542;2022-11-20T09:56:03;13.50;;;9.53;;
3054;SDS011;1537;52.018;8.542;2022-11-20T09:59:45;12.70;;;8.87;;
3054;SDS011;1537;52.018;8.542;2022-11-20T10:03:13;15.97;;;11.90;;
3054;SDS011;1537;52.018;8.542;2022-11-20T10:06:44;18.77;;;11.27;;
3054;SDS011;1537;52.018;8.542;2022-11-20T10:10:39;18.90;;;12.80;;
3054;SDS011;1537;52.018;8.542;2022-11-20T10:14:12;17.37;;;11.77;;
3054;SDS011;1537;52.018;8.542;2022-11-20T10:21:35;17.37;;;12.90;;
3054;SDS011;1537;52.018;8.542;2022-11-20T10:25:05;16.70;;;9.77;;
3054;SDS011;1537;52.018;8.542;2022-11-20T10:28:46;15.23;;;11.97;;
3054;SDS011;1537;52.018;8.542;2022-11-20T10:32:24;16.60;;;10.80;;
3054;SDS011;1537;52.018;8.542;2022-11-20T10:36:04;16.33;;;11.80;;
3054;SDS011;1537;52.018;8.542;2022-11-20T10:39:33;17.27;;;10.40;;
3054;SDS011;1537;52.018;8.542;2022-11-20T10:43:02;20.40;;;11.00;;
3054;SDS011;1537;52.018;8.542;2022-11-20T10:46:34;18.00;;;11.30;;
3054;SDS011;1537;52.018;8.542;2022-11-20T10:50:03;12.90;;;10.27;;
3054;SDS011;1537;52.018;8.542;2022-11-20T10:53:40;17.30;;;10.63;;
3054;SDS011;1537;52.018;8.542;2022-11-20T10:57:20;33.93;;;18.30;;
3054;SDS011;1537;52.018;8.542;2022-11-20T11:01:02;38.00;;;22.03;;
3054;SDS011;1537;52.018;8.542;2022-11-20T11:04:33;14.77;;;10.10;;
3054;SDS011;1537;52.018;8.542;2022-11-20T11:08:00;14.03;;;10.40;;
3054;SDS011;1537;52.018;8.542;2022-11-20T11:11:25;17.33;;;12.07;;
3054;SDS011;1537;52.018;8.542;2022-11-20T11:14:52;13.43;;;9.73;;
3054;SDS011;1537;52.018;8.542;2022-11-20T11:18:26;14.53;;;9.93;;
3054;SDS011;1537;52.018;8.542;2022-11-20T11:21:53;13.83;;;9.90;;
3054;SDS011;1537;52.018;8.542;2022-11-20T11:25:20;14.57;;;10.70;;
3054;SDS011;1537;52.018;8.542;2022-11-20T11:28:52;14.00;;;10.00;;
3054;SDS011;1537;52.018;8.542;2022-11-20T11:32:18;15.43;;;11.73;;
3054;SDS011;1537;52.018;8.542;2022-11-20T11:35:45;13.50;;;9.70;;
3054;SDS011;1537;52.018;8.542;2022-11-20T11:39:14;18.97;;;12.67;;
3054;SDS011;1537;52.018;8.542;2022-11-20T11:42:41;23.90;;;17.90;;
3054;SDS011;1537;52.018;8.542;2022-11-20T11:46:08;10.40;;;8.23;;
3054;SDS011;1537;52.018;8.542;2022-11-20T11:49:48;14.27;;;9.87;;
3054;SDS011;1537;52.018;8.542;2022-11-20T11:53:23;14.57;;;11.33;;
3054;SDS011;1537;52.018;8.542;2022-11-20T11:56:52;13.37;;;9.17;;
3054;SDS011;1537;52.018;8.542;2022-11-20T12:00:17;10.33;;;7.90;;
3054;SDS011;1537;52.018;8.542;2022-11-20T12:03:44;35.67;;;24.37;;
3054;SDS011;1537;52.018;8.542;2022-11-20T12:07:18;10.80;;;8.47;;
3054;SDS011;1537;52.018;8.542;2022-11-20T12:11:06;13.47;;;9.40;;
3054;SDS011;1537;52.018;8.542;2022-11-20T12:14:37;18.00;;;13.83;;
3054;SDS011;1537;52.018;8.542;2022-11-20T12:18:04;12.60;;;9.03;;
3054;SDS011;1537;52.018;8.542;2022-11-20T12:21:38;14.07;;;10.57;;
3054;SDS011;1537;52.018;8.542;2022-11-20T12:25:10;14.43;;;9.70;;
3054;SDS011;1537;52.018;8.542;2022-11-20T12:28:41;13.53;;;9.43;;
3054;SDS011;1537;52.018;8.542;2022-11-20T12:32:25;13.43;;;10.27;;
3054;SDS011;1537;52.018;8.542;2022-11-20T12:36:21;14.93;;;10.60;;
3054;SDS011;1537;52.018;8.542;2022-11-20T12:39:56;14.73;;;10.50;;
3054;SDS011;1537;52.018;8.542;2022-11-20T12:43:25;12.27;;;8.67;;
3054;SDS011;1537;52.018;8.542;2022-11-20T12:47:10;12.67;;;8.93;;
3054;SDS011;1537;52.018;8.542;2022-11-20T12:50:43;14.47;;;10.57;;
3054;SDS011;1537;52.018;8.542;2022-11-20T12:54:37;14.77;;;9.83;;
3054;SDS011;1537;52.018;8.542;2022-11-20T12:58:10;10.23;;;7.40;;
3054;SDS011;1537;52.018;8.542;2022-11-20T13:01:42;12.40;;;8.13;;
3054;SDS011;1537;52.018;8.542;2022-11-20T13:05:17;12.33;;;10.10;;
3054;SDS011;1537;52.018;8.542;2022-11-20T13:08:47;14.07;;;9.37;;
3054;SDS011;1537;52.018;8.542;2022-11-20T13:12:19;15.00;;;9.43;;
3054;SDS011;1537;52.018;8.542;2022-11-20T13:15:50;12.80;;;9.10;;
3054;SDS011;1537;52.018;8.542;2022-11-20T13:19:19;12.27;;;8.90;;
3054;SDS011;1537;52.018;8.542;2022-11-20T13:22:44;12.27;;;8.93;;
3054;SDS011;1537;52.018;8.542;2022-11-20T13:26:15;14.27;;;8.67;;
3054;SDS011;1537;52.018;8.542;2022-11-20T13:29:44;12.27;;;9.10;;
3054;SDS011;1537;52.018;8.542;2022-11-20T13:33:21;15.57;;;10.00;;
3054;SDS011;1537;52.018;8.542;2022-11-20T13:36:49;13.30;;;9.20;;
3054;SDS011;1537;52.018;8.542;2022-11-20T13:40:20;10.43;;;8.70;;
3054;SDS011;1537;52.018;8.542;2022-11-20T13:43:47;13.50;;;9.43;;
3054;SDS011;1537;52.018;8.542;2022-11-20T13:47:17;13.90;;;10.27;;
3054;SDS011;1537;52.018;8.542;2022-11-20T13:50:46;15.80;;;11.50;;
3054;SDS011;1537;52.018;8.542;2022-11-20T13:54:40;18.27;;;11.47;;
3054;SDS011;1537;52.018;8.542;2022-11-20T13:58:19;17.60;;;10.50;;
3054;SDS011;1537;52.018;8.542;2022-11-20T14:01:56;15.27;;;10.57;;
3054;SDS011;1537;52.018;8.542;2022-11-20T14:05:20;18.03;;;11.27;;
3054;SDS011;1537;52.018;8.542;2022-11-20T14:08:46;22.67;;;13.30;;
3054;SDS011;1537;52.018;8.542;2022-11-20T14:12:14;17.47;;;12.17;;
3054;SDS011;1537;52.018;8.542;2022-11-20T14:15:40;19.70;;;12.50;;
3054;SDS011;1537;52.018;8.542;2022-11-20T14:22:59;19.27;;;13.57;;
3054;SDS011;1537;52.018;8.542;2022-11-20T14:26:23;20.27;;;12.80;;
3054;SDS011;1537;52.018;8.542;2022-11-20T14:29:48;22.60;;;15.10;;
3054;SDS011;1537;52.018;8.542;2022-11-20T14:33:13;22.47;;;15.13;;
3054;SDS011;1537;52.018;8.542;2022-11-20T14:36:39;20.37;;;14.20;;
3054;SDS011;1537;52.018;8.542;2022-11-20T14:40:05;22.17;;;14.00;;
3054;SDS011;1537;52.018;8.542;2022-11-20T14:43:45;19.57;;;13.47;;
3054;SDS011;1537;52.018;8.542;2022-11-20T14:47:11;22.80;;;14.77;;
3054;SDS011;1537;52.018;8.542;2022-11-20T14:50:35;19.60;;;13.40;;
3054;SDS011;1537;52.018;8.542;2022-11-20T14:54:13;23.30;;;15.33;;
3054;SDS011;1537;52.018;8.542;2022-11-20T14:57:38;16.70;;;10.93;;
3054;SDS011;1537;52.018;8.542;2022-11-20T15:01:03;20.97;;;15.07;;
3054;SDS011;1537;52.018;8.542;2022-11-20T15:04:28;24.17;;;15.17;;
3054;SDS011;1537;52.018;8.542;2022-11-20T15:08:03;20.20;;;14.70;;
3054;SDS011;1537;52.018;8.542;2022-11-20T15:11:31;19.47;;;14.97;;
3054;SDS011;1537;52.018;8.542;2022-11-20T15:14:57;21.67;;;15.40;;
3054;SDS011;1537;52.018;8.542;2022-11-20T15:18:22;21.70;;;16.27;;
3054;SDS011;1537;52.018;8.542;2022-11-20T15:21:49;21.20;;;14.23;;
3054;SDS011;1537;52.018;8.542;2022-11-20T15:25:13;19.60;;;13.20;;
3054;SDS011;1537;52.018;8.542;2022-11-20T15:28:41;19.00;;;14.17;;
3054;SDS011;1537;52.018;8.542;2022-11-20T15:32:09;21.97;;;13.13;;
3054;SDS011;1537;52.018;8.542;2022-11-20T15:35:34;16.87;;;12.03;;
3054;SDS011;1537;52.018;8.542;2022-11-20T15:38:58;15.47;;;11.90;;
3054;SDS011;1537;52.018;8.542;2022-11-20T15:42:22;20.10;;;13.70;;
3054;SDS011;1537;52.018;8.542;2022-11-20T15:45:48;19.53;;;11.13;;
3054;SDS011;1537;52.018;8.542;2022-11-20T15:49:14;16.70;;;12.10;;
3054;SDS011;1537;52.018;8.542;2022-11-20T15:52:40;16.27;;;12.00;;
3054;SDS011;1537;52.018;8.542;2022-11-20T15:56:04;17.33;;;11.33;;
3054;SDS011;1537;52.018;8.542;2022-11-20T15:59:28;19.33;;;13.67;;
3054;SDS011;1537;52.018;8.542;2022-11-20T16:02:53;15.83;;;11.87;;
3054;SDS011;1537;52.018;8.542;2022-11-20T16:06:17;21.73;;;13.33;;
3054;SDS011;1537;52.018;8.542;2022-11-20T16:09:40;21.00;;;15.07;;
3054;SDS011;1537;52.018;8.542;2022-11-20T16:13:04;20.37;;;14.93;;
3054;SDS011;1537;52.018;8.542;2022-11-20T16:16:52;19.17;;;14.40;;
3054;SDS011;1537;52.018;8.542;2022-11-20T16:20:17;21.60;;;13.00;;
3054;SDS011;1537;52.018;8.542;2022-11-20T16:23:41;23.60;;;13.80;;
3054;SDS011;1537;52.018;8.542;2022-11-20T16:27:05;16.30;;;11.23;;
3054;SDS011;1537;52.018;8.542;2022-11-20T16:30:28;14.53;;;10.10;;
3054;SDS011;1537;52.018;8.542;2022-11-20T16:33:54;22.70;;;12.70;;
3054;SDS011;1537;52.018;8.542;2022-11-20T16:37:20;20.33;;;14.17;;
3054;SDS011;1537;52.018;8.542;2022-11-20T16:40:43;17.03;;;12.30;;
3054;SDS011;1537;52.018;8.542;2022-11-20T16:44:08;18.57;;;14.17;;
3054;SDS011;1537;52.018;8.542;2022-11-20T16:47:33;14.60;;;11.70;;
3054;SDS011;1537;52.018;8.542;2022-11-20T16:50:57;20.23;;;14.30;;
3054;SDS011;1537;52.018;8.542;2022-11-20T16:54:22;26.60;;;16.03;;
3054;SDS011;1537;52.018;8.542;2022-11-20T16:57:46;30.70;;;18.60;;
3054;SDS011;1537;52.018;8.542;2022-11-20T17:01:11;27.53;;;18.83;;
3054;SDS011;1537;52.018;8.542;2022-11-20T17:04:37;22.07;;;16.13;;
3054;SDS011;1537;52.018;8.542;2022-11-20T17:08:00;21.30;;;14.27;;
3054;SDS011;1537;52.018;8.542;2022-11-20T17:11:26;20.23;;;13.97;;
3054;SDS011;1537;52.018;8.542;2022-11-20T17:14:50;21.20;;;14.07;;
3054;SDS011;1537;52.018;8.542;2022-11-20T17:18:14;23.33;;;15.10;;
3054;SDS011;1537;52.018;8.542;2022-11-20T17:21:37;22.20;;;14.90;;
3054;SDS011;1537;52.018;8.542;2022-11-20T17:25:01;18.10;;;12.90;;
3054;SDS011;1537;52.018;8.542;2022-11-20T17:28:27;22.10;;;14.93;;
3054;SDS011;1537;52.018;8.542;2022-11-20T17:31:52;22.40;;;16.57;;
3054;SDS011;1537;52.018;8.542;2022-11-20T17:35:16;22.83;;;14.67;;
3054;SDS011;1537;52.018;8.542;2022-11-20T17:38:40;23.07;;;13.90;;
3054;SDS011;1537;52.018;8.542;2022-11-20T17:42:04;23.77;;;15.40;;
3054;SDS011;1537;52.018;8.542;2022-11-20T17:45:46;28.07;;;18.43;;
3054;SDS011;1537;52.018;8.542;2022-11-20T17:49:10;19.07;;;13.50;;
3054;SDS011;1537;52.018;8.542;2022-11-20T17:52:34;21.10;;;15.33;;
3054;SDS011;1537;52.018;8.542;2022-11-20T17:55:57;23.50;;;15.53;;
3054;SDS011;1537;52.018;8.542;2022-11-20T17:59:38;23.53;;;14.93;;
3054;SDS011;1537;52.018;8.542;2022-11-20T18:03:03;21.47;;;14.10;;
3054;SDS011;1537;52.018;8.542;2022-11-20T18:06:27;24.13;;;16.17;;
3054;SDS011;1537;52.018;8.542;2022-11-20T18:09:52;25.43;;;15.10;;
3054;SDS011;1537;52.018;8.542;2022-11-20T18:13:16;23.03;;;14.70;;
3054;SDS011;1537;52.018;8.542;2022-11-20T18:16:40;21.60;;;15.83;;
3054;SDS011;1537;52.018;8.542;2022-11-20T18:20:07;22.00;;;16.20;;
3054;SDS011;1537;52.018;8.542;2022-11-20T18:23:49;22.73;;;14.67;;
3054;SDS011;1537;52.018;8.542;2022-11-20T18:27:15;18.50;;;12.73;;
3054;SDS011;1537;52.018;8.542;2022-11-20T18:30:41;21.77;;;13.33;;
3054;SDS011;1537;52.018;8.542;2022-11-20T18:34:04;20.30;;;14.80;;
3054;SDS011;1537;52.018;8.542;2022-11-20T18:37:33;17.80;;;12.47;;
3054;SDS011;1537;52.018;8.542;2022-11-20T18:40:57;20.47;;;14.67;;
3054;SDS011;1537;52.018;8.542;2022-11-20T18:44:26;23.13;;;15.10;;
3054;SDS011;1537;52.018;8.542;2022-11-20T18:48:08;22.43;;;15.03;;
3054;SDS011;1537;52.018;8.542;2022-11-20T18:51:32;22.87;;;15.00;;
3054;SDS011;1537;52.018;8.542;2022-11-20T18:54:57;20.37;;;14.63;;
3054;SDS011;1537;52.018;8.542;2022-11-20T18:58:21;22.00;;;15.03;;
3054;SDS011;1537;52.018;8.542;2022-11-20T19:01:45;26.73;;;16.30;;
3054;SDS011;1537;52.018;8.542;2022-11-20T19:05:08;25.97;;;16.40;;
3054;SDS011;1537;52.018;8.542;2022-11-20T19:11:58;21.10;;;13.80;;
3054;SDS011;1537;52.018;8.542;2022-11-20T19:15:21;24.07;;;16.30;;
3054;SDS011;1537;52.018;8.542;2022-11-20T19:18:45;22.60;;;16.27;;
3054;SDS011;1537;52.018;8.542;2022-11-20T19:22:09;24.30;;;15.07;;
3054;SDS011;1537;52.018;8.542;2022-11-20T19:25:33;28.93;;;17.47;;
3054;SDS011;1537;52.018;8.542;2022-11-20T19:29:05;20.10;;;13.27;;
3054;SDS011;1537;52.018;8.542;2022-11-20T19:32:38;22.77;;;14.67;;
3054;SDS011;1537;52.018;8.542;2022-11-20T19:36:07;21.20;;;14.87;;
3054;SDS011;1537;52.018;8.542;2022-11-20T19:39:32;23.70;;;15.13;;
3054;SDS011;1537;52.018;8.542;2022-11-20T19:42:57;22.60;;;15.13;;
3054;SDS011;1537;52.018;8.542;2022-11-20T19:46:22;29.20;;;15.80;;
3054;SDS011;1537;52.018;8.542;2022-11-20T19:49:47;23.57;;;15.37;;
3054;SDS011;1537;52.018;8.542;2022-11-20T19:53:11;27.30;;;15.03;;
3054;SDS011;1537;52.018;8.542;2022-11-20T19:56:35;23.53;;;16.97;;
3054;SDS011;1537;52.018;8.542;2022-11-20T19:59:59;24.23;;;15.87;;
3054;SDS011;1537;52.018;8.542;2022-11-20T20:03:27;27.43;;;16.57;;
3054;SDS011;1537;52.018;8.542;2022-11-20T20:06:51;22.90;;;14.10;;
3054;SDS011;1537;52.018;8.542;2022-11-20T20:10:15;25.33;;;16.43;;
3054;SDS011;1537;52.018;8.542;2022-11-20T20:13:41;23.50;;;14.40;;
3054;SDS011;1537;52.018;8.542;2022-11-20T20:17:05;21.87;;;14.43;;
3054;SDS011;1537;52.018;8.542;2022-11-20T20:20:30;24.80;;;15.20;;
3054;SDS011;1537;52.018;8.542;2022-11-20T20:23:54;22.90;;;14.70;;
3054;SDS011;1537;52.018;8.542;2022-11-20T20:27:19;23.87;;;15.63;;
3054;SDS011;1537;52.018;8.542;2022-11-20T20:30:42;24.33;;;15.20;;
3054;SDS011;1537;52.018;8.542;2022-11-20T20:34:06;22.10;;;13.90;;
3054;SDS011;1537;52.018;8.542;2022-11-20T20:37:31;22.90;;;15.00;;
3054;SDS011;1537;52.018;8.542;2022-11-20T20:40:55;25.47;;;16.13;;
3054;SDS011;1537;52.018;8.542;2022-11-20T20:44:19;21.10;;;14.90;;
3054;SDS011;1537;52.018;8.542;2022-11-20T20:48:00;24.87;;;16.47;;
3054;SDS011;1537;52.018;8.542;2022-11-20T20:51:23;24.53;;;16.90;;
3054;SDS011;1537;52.018;8.542;2022-11-20T20:54:49;27.10;;;17.27;;
3054;SDS011;1537;52.018;8.542;2022-11-20T20:58:13;28.63;;;18.70;;
3054;SDS011;1537;52.018;8.542;2022-11-20T21:01:37;29.63;;;17.80;;